createdAt,value
2018-10-06T00:00:16.183Z,6.30
2018-10-06T00:02:44.582Z,6.20
2018-10-06T00:05:12.799Z,6.20
2018-10-06T00:07:41.037Z,6.20
2018-10-06T00:10:09.222Z,6.20
2018-10-06T00:12:37.402Z,6.20
2018-10-06T00:15:05.574Z,6.20
2018-10-06T00:17:33.748Z,6.20
2018-10-06T00:20:01.921Z,6.30
2018-10-06T00:22:30.178Z,6.30
2018-10-06T00:24:58.419Z,6.30
2018-10-06T00:27:27.930Z,6.20
2018-10-06T00:29:57.879Z,6.10
2018-10-06T00:32:27.067Z,6.10
2018-10-06T00:34:55.306Z,6.10
2018-10-06T00:37:25.334Z,6.00
2018-10-06T00:39:53.541Z,6.00
2018-10-06T00:42:22.459Z,5.90
2018-10-06T00:44:50.649Z,5.90
2018-10-06T00:47:18.819Z,5.90
2018-10-06T00:49:47.624Z,5.90
2018-10-06T00:52:15.814Z,5.90
2018-10-06T00:54:43.970Z,6.00
2018-10-06T00:57:12.202Z,6.00
2018-10-06T00:59:41.718Z,6.00
2018-10-06T01:02:09.862Z,6.00
2018-10-06T01:04:38.022Z,6.00
2018-10-06T01:07:06.220Z,5.90
2018-10-06T01:09:34.507Z,5.90
2018-10-06T01:12:02.711Z,6.00
2018-10-06T01:14:30.890Z,6.00
2018-10-06T01:16:59.086Z,6.00
2018-10-06T01:19:27.425Z,6.00
2018-10-06T01:21:55.608Z,5.90
2018-10-06T01:24:23.895Z,5.80
2018-10-06T01:26:52.038Z,5.80
2018-10-06T01:29:20.246Z,5.70
2018-10-06T01:31:49.034Z,5.80
2018-10-06T01:37:09.438Z,5.70
2018-10-06T01:39:38.757Z,5.60
2018-10-06T01:42:06.986Z,5.60
2018-10-06T01:44:35.181Z,5.50
2018-10-06T01:47:03.402Z,5.50
2018-10-06T01:49:31.725Z,5.40
2018-10-06T01:51:59.960Z,5.50
2018-10-06T01:54:28.907Z,5.50
2018-10-06T01:56:57.095Z,5.50
2018-10-06T01:59:25.302Z,5.50
2018-10-06T02:01:53.538Z,5.40
2018-10-06T02:04:24.134Z,5.40
2018-10-06T02:06:52.913Z,5.30
2018-10-06T02:09:21.066Z,5.40
2018-10-06T02:11:49.262Z,5.40
2018-10-06T02:14:17.914Z,5.50
2018-10-06T02:16:46.597Z,5.60
2018-10-06T02:19:15.178Z,5.60
2018-10-06T02:21:43.382Z,5.60
2018-10-06T02:24:13.262Z,5.60
2018-10-06T02:26:42.278Z,5.60
2018-10-06T02:29:10.474Z,5.50
2018-10-06T02:31:38.663Z,5.50
2018-10-06T02:34:06.986Z,5.50
2018-10-06T02:36:35.918Z,5.40
2018-10-06T02:39:05.285Z,5.30
2018-10-06T02:41:34.342Z,5.20
2018-10-06T02:44:02.987Z,5.10
2018-10-06T02:46:31.183Z,5.10
2018-10-06T02:49:00.330Z,5.10
2018-10-06T02:51:28.522Z,5.10
2018-10-06T02:53:56.717Z,5.00
2018-10-06T02:56:25.415Z,5.00
2018-10-06T02:58:53.679Z,5.00
2018-10-06T03:01:21.846Z,5.00
2018-10-06T03:03:50.086Z,5.00
2018-10-06T03:06:18.266Z,5.00
2018-10-06T03:08:46.650Z,5.10
2018-10-06T03:11:14.985Z,5.10
2018-10-06T03:13:43.145Z,5.10
2018-10-06T03:16:11.375Z,5.20
2018-10-06T03:18:41.268Z,5.20
2018-10-06T03:21:09.450Z,5.20
2018-10-06T03:23:37.851Z,5.30
2018-10-06T03:26:06.137Z,5.40
2018-10-06T03:28:36.156Z,5.30
2018-10-06T03:31:04.711Z,5.30
2018-10-06T03:33:33.022Z,5.20
2018-10-06T03:36:01.330Z,5.10
2018-10-06T03:38:29.533Z,5.10
2018-10-06T03:40:57.758Z,5.00
2018-10-06T03:43:26.314Z,5.00
2018-10-06T03:45:54.517Z,4.90
2018-10-06T03:48:22.730Z,4.90
2018-10-06T03:50:51.789Z,4.90
2018-10-06T03:53:20.003Z,4.90
2018-10-06T03:55:48.194Z,4.90
2018-10-06T03:58:16.570Z,5.00
2018-10-06T04:00:44.913Z,5.10
2018-10-06T04:03:13.430Z,5.10
2018-10-06T04:05:42.130Z,5.10
2018-10-06T04:08:10.370Z,5.20
2018-10-06T04:10:38.559Z,5.20
2018-10-06T04:13:08.679Z,5.10
2018-10-06T04:15:37.409Z,5.10
2018-10-06T04:18:07.537Z,5.10
2018-10-06T04:20:35.746Z,5.10
2018-10-06T04:23:03.989Z,5.00
2018-10-06T04:25:32.154Z,4.90
2018-10-06T04:28:00.398Z,4.80
2018-10-06T04:30:28.615Z,4.70
2018-10-06T04:32:56.819Z,4.70
2018-10-06T04:35:31.414Z,4.70
2018-10-06T04:37:59.830Z,4.70
2018-10-06T04:40:28.054Z,4.70
2018-10-06T04:42:56.226Z,4.70
2018-10-06T04:45:24.402Z,4.60
2018-10-06T04:47:52.615Z,4.50
2018-10-06T04:50:20.802Z,4.50
2018-10-06T04:52:53.899Z,4.50
2018-10-06T04:55:22.071Z,4.50
2018-10-06T04:57:50.351Z,4.50
2018-10-06T05:00:18.748Z,4.50
2018-10-06T05:02:46.870Z,4.40
2018-10-06T05:05:15.953Z,4.40
2018-10-06T05:07:44.163Z,4.30
2018-10-06T05:10:12.336Z,4.30
2018-10-06T05:12:45.426Z,4.30
2018-10-06T05:15:13.649Z,4.30
2018-10-06T05:17:41.863Z,4.30
2018-10-06T05:20:10.269Z,4.30
2018-10-06T05:22:38.646Z,4.30
2018-10-06T05:25:07.213Z,4.30
2018-10-06T05:27:35.423Z,4.30
2018-10-06T05:30:03.666Z,4.30
2018-10-06T05:32:31.856Z,4.40
2018-10-06T05:35:00.039Z,4.50
2018-10-06T05:37:28.261Z,4.50
2018-10-06T05:39:56.463Z,4.50
2018-10-06T05:42:24.688Z,4.60
2018-10-06T05:44:52.911Z,4.70
2018-10-06T05:47:21.058Z,4.70
2018-10-06T05:49:49.250Z,4.80
2018-10-06T05:52:17.426Z,4.90
2018-10-06T05:54:45.638Z,5.00
2018-10-06T05:57:13.990Z,5.10
2018-10-06T05:59:43.608Z,5.20
2018-10-06T06:02:11.837Z,5.20
2018-10-06T06:04:40.024Z,5.30
2018-10-06T06:07:08.475Z,5.40
2018-10-06T06:09:36.743Z,5.50
2018-10-06T06:12:04.971Z,5.60
2018-10-06T06:14:33.147Z,5.70
2018-10-06T06:17:01.546Z,5.80
2018-10-06T06:19:29.980Z,5.90
2018-10-06T06:21:58.189Z,6.00
2018-10-06T06:24:26.359Z,6.10
2018-10-06T06:26:55.142Z,6.30
2018-10-06T06:29:23.864Z,6.60
2018-10-06T06:31:52.036Z,6.80
2018-10-06T06:34:20.246Z,7.20
2018-10-06T06:36:48.875Z,7.40
2018-10-06T06:39:17.094Z,7.80
2018-10-06T06:41:45.361Z,8.10
2018-10-06T06:44:13.662Z,8.30
2018-10-06T06:46:41.778Z,8.70
2018-10-06T06:49:09.971Z,8.90
2018-10-06T06:51:38.302Z,9.20
2018-10-06T06:54:06.655Z,9.70
2018-10-06T06:56:34.871Z,10.10
2018-10-06T06:59:03.874Z,10.70
2018-10-06T07:01:32.074Z,11.10
2018-10-06T07:04:00.414Z,11.50
2018-10-06T07:06:28.621Z,11.90
2018-10-06T07:08:56.767Z,12.40
2018-10-06T07:11:25.245Z,12.80
2018-10-06T07:13:53.424Z,13.20
2018-10-06T07:16:21.955Z,13.60
2018-10-06T07:18:50.132Z,13.70
2018-10-06T07:21:19.886Z,14.00
2018-10-06T07:23:48.397Z,14.20
2018-10-06T07:26:16.575Z,14.30
2018-10-06T07:28:45.690Z,14.30
2018-10-06T07:31:14.093Z,14.50
2018-10-06T07:33:42.717Z,14.80
2018-10-06T07:36:11.210Z,15.10
2018-10-06T07:38:39.427Z,15.30
2018-10-06T07:41:07.619Z,15.50
2018-10-06T07:43:35.803Z,15.60
2018-10-06T07:46:06.062Z,15.90
2018-10-06T07:48:34.310Z,16.00
2018-10-06T07:51:02.549Z,16.20
2018-10-06T07:53:30.754Z,16.00
2018-10-06T07:55:58.922Z,15.90
2018-10-06T07:58:27.172Z,15.70
2018-10-06T08:00:55.979Z,15.60
2018-10-06T08:03:24.199Z,15.50
2018-10-06T08:05:52.659Z,15.50
2018-10-06T08:08:20.858Z,15.50
2018-10-06T08:10:49.067Z,15.70
2018-10-06T08:13:17.250Z,15.90
2018-10-06T08:15:45.459Z,15.90
2018-10-06T08:18:13.669Z,16.10
2018-10-06T08:20:41.918Z,16.30
2018-10-06T08:23:10.126Z,16.30
2018-10-06T08:25:38.334Z,16.30
2018-10-06T08:28:06.514Z,16.50
2018-10-06T08:30:35.363Z,16.60
2018-10-06T08:33:03.506Z,16.40
2018-10-06T08:35:31.855Z,16.40
2018-10-06T08:38:00.446Z,16.40
2018-10-06T08:40:29.638Z,16.40
2018-10-06T08:42:57.844Z,16.20
2018-10-06T08:45:26.010Z,16.50
2018-10-06T08:47:54.260Z,16.70
2018-10-06T08:50:22.641Z,16.80
2018-10-06T08:52:51.449Z,16.60
2018-10-06T08:55:19.674Z,16.90
2018-10-06T08:57:47.983Z,17.10
2018-10-06T09:00:16.330Z,17.60
2018-10-06T09:02:45.350Z,17.90
2018-10-06T09:05:13.614Z,18.40
2018-10-06T09:07:41.854Z,19.20
2018-10-06T09:10:11.215Z,19.70
2018-10-06T09:12:39.394Z,20.60
2018-10-06T09:15:08.198Z,21.30
2018-10-06T09:17:36.433Z,22.10
2018-10-06T09:20:04.607Z,22.40
2018-10-06T09:22:32.837Z,22.00
2018-10-06T09:25:01.738Z,22.20
2018-10-06T09:27:29.950Z,22.10
2018-10-06T09:29:58.140Z,22.10
2018-10-06T09:32:26.779Z,22.20
2018-10-06T09:34:54.985Z,22.00
2018-10-06T09:37:23.186Z,22.10
2018-10-06T09:39:51.398Z,22.50
2018-10-06T09:42:21.513Z,22.70
2018-10-06T09:44:49.803Z,22.90
2018-10-06T09:47:18.002Z,23.10
2018-10-06T09:49:46.194Z,23.50
2018-10-06T09:52:14.386Z,23.10
2018-10-06T09:54:44.495Z,22.60
2018-10-06T09:57:12.682Z,22.20
2018-10-06T09:59:40.857Z,22.40
2018-10-06T10:02:14.493Z,22.70
2018-10-06T10:04:42.646Z,22.70
2018-10-06T10:07:12.764Z,22.90
2018-10-06T10:09:40.989Z,23.60
2018-10-06T10:12:09.188Z,23.90
2018-10-06T10:14:37.729Z,23.30
2018-10-06T10:17:06.000Z,23.70
2018-10-06T10:19:34.717Z,23.60
2018-10-06T10:22:03.227Z,23.10
2018-10-06T10:24:31.670Z,22.80
2018-10-06T10:26:59.883Z,23.00
2018-10-06T10:29:28.455Z,23.30
2018-10-06T10:31:56.642Z,23.90
2018-10-06T10:34:25.599Z,23.80
2018-10-06T10:36:53.778Z,23.70
2018-10-06T10:39:23.930Z,24.10
2018-10-06T10:41:52.668Z,24.20
2018-10-06T10:44:20.867Z,24.30
2018-10-06T10:46:49.817Z,25.40
2018-10-06T10:49:18.339Z,26.30
2018-10-06T10:51:46.471Z,27.50
2018-10-06T10:54:15.262Z,28.50
2018-10-06T10:56:43.491Z,28.40
2018-10-06T10:59:11.683Z,28.20
2018-10-06T11:01:39.905Z,27.30
2018-10-06T11:04:08.394Z,27.30
2018-10-06T11:06:37.306Z,28.00
2018-10-06T11:09:06.646Z,27.80
2018-10-06T11:11:34.823Z,27.00
2018-10-06T11:14:03.150Z,26.70
2018-10-06T11:16:31.362Z,26.30
2018-10-06T11:18:59.966Z,25.90
2018-10-06T11:21:29.272Z,25.80
2018-10-06T11:23:57.559Z,26.60
2018-10-06T11:26:25.766Z,26.50
2018-10-06T11:28:54.006Z,26.80
2018-10-06T11:31:22.271Z,26.80
2018-10-06T11:33:50.494Z,26.40
2018-10-06T11:36:20.571Z,26.10
2018-10-06T11:38:49.386Z,26.80
2018-10-06T11:41:17.598Z,26.80
2018-10-06T11:43:45.798Z,27.10
2018-10-06T11:46:14.006Z,27.50
2018-10-06T11:48:42.221Z,27.60
2018-10-06T11:51:10.359Z,27.20
2018-10-06T11:53:38.541Z,26.10
2018-10-06T11:56:07.006Z,25.90
2018-10-06T11:58:35.217Z,25.90
2018-10-06T12:01:03.417Z,26.00
2018-10-06T12:03:31.871Z,25.90
2018-10-06T12:06:00.246Z,25.90
2018-10-06T12:08:28.463Z,25.60
2018-10-06T12:10:56.697Z,25.20
2018-10-06T12:13:24.918Z,25.10
2018-10-06T12:15:53.110Z,25.10
2018-10-06T12:18:21.694Z,25.90
2018-10-06T12:20:49.902Z,27.20
2018-10-06T12:23:18.114Z,28.30
2018-10-06T12:25:46.329Z,29.40
2018-10-06T12:28:14.515Z,30.20
2018-10-06T12:30:44.138Z,29.90
2018-10-06T12:33:12.376Z,29.40
2018-10-06T12:35:40.673Z,28.60
2018-10-06T12:38:08.799Z,27.70
2018-10-06T12:40:37.184Z,27.20
2018-10-06T12:43:05.938Z,27.10
2018-10-06T12:45:34.154Z,26.80
2018-10-06T12:48:02.679Z,26.70
2018-10-06T12:50:30.954Z,26.80
2018-10-06T12:52:59.131Z,26.80
2018-10-06T12:55:27.594Z,26.80
2018-10-06T12:57:55.778Z,26.50
2018-10-06T13:00:23.988Z,26.10
2018-10-06T13:02:52.232Z,25.60
2018-10-06T13:05:20.447Z,25.60
2018-10-06T13:07:48.703Z,25.50
2018-10-06T13:10:16.914Z,25.40
2018-10-06T13:12:45.219Z,25.20
2018-10-06T13:15:15.217Z,25.10
2018-10-06T13:17:43.414Z,24.80
2018-10-06T13:20:11.686Z,24.20
2018-10-06T13:22:39.862Z,24.00
2018-10-06T13:25:08.070Z,23.90
2018-10-06T13:27:36.281Z,23.80
2018-10-06T13:30:04.666Z,23.50
2018-10-06T13:32:32.837Z,23.60
2018-10-06T13:35:01.270Z,24.10
2018-10-06T13:37:29.528Z,24.60
2018-10-06T13:39:57.756Z,25.00
2018-10-06T13:42:25.933Z,25.50
2018-10-06T13:44:54.190Z,25.30
2018-10-06T13:47:22.329Z,24.80
2018-10-06T13:49:50.548Z,24.20
2018-10-06T13:52:18.722Z,23.70
2018-10-06T13:54:46.926Z,23.40
2018-10-06T13:57:15.365Z,23.20
2018-10-06T13:59:43.558Z,23.10
2018-10-06T14:02:12.122Z,23.20
2018-10-06T14:04:40.902Z,23.20
2018-10-06T14:07:09.126Z,23.10
2018-10-06T14:09:37.352Z,22.80
2018-10-06T14:12:05.794Z,22.60
2018-10-06T14:14:34.682Z,22.40
2018-10-06T14:17:03.278Z,22.20
2018-10-06T14:19:31.466Z,22.10
2018-10-06T14:21:59.666Z,22.00
2018-10-06T14:24:27.982Z,21.90
2018-10-06T14:26:56.158Z,21.80
2018-10-06T14:29:24.513Z,21.80
2018-10-06T14:31:52.710Z,21.90
2018-10-06T14:34:21.287Z,21.80
2018-10-06T14:36:49.568Z,21.80
2018-10-06T14:39:18.458Z,21.70
2018-10-06T14:41:46.685Z,21.60
2018-10-06T14:44:14.927Z,21.50
2018-10-06T14:46:43.543Z,21.50
2018-10-06T14:49:11.989Z,21.50
2018-10-06T14:51:40.192Z,21.50
2018-10-06T14:54:08.379Z,21.40
2018-10-06T14:56:36.614Z,21.40
2018-10-06T14:59:04.870Z,21.30
2018-10-06T15:01:33.642Z,21.40
2018-10-06T15:04:03.738Z,21.30
2018-10-06T15:06:31.986Z,21.30
2018-10-06T15:09:00.422Z,21.30
2018-10-06T15:11:28.970Z,21.30
2018-10-06T15:13:57.172Z,21.40
2018-10-06T15:16:25.694Z,21.40
2018-10-06T15:18:53.909Z,21.50
2018-10-06T15:21:22.793Z,21.40
2018-10-06T15:23:50.976Z,21.30
2018-10-06T15:26:19.168Z,21.30
2018-10-06T15:28:47.909Z,21.20
2018-10-06T15:31:16.250Z,21.10
2018-10-06T15:33:44.839Z,21.00
2018-10-06T15:36:13.202Z,21.00
2018-10-06T15:38:41.394Z,20.90
2018-10-06T15:41:09.594Z,20.90
2018-10-06T15:43:37.810Z,20.80
2018-10-06T15:46:05.994Z,20.70
2018-10-06T15:48:34.146Z,20.70
2018-10-06T15:51:02.521Z,20.50
2018-10-06T15:53:30.723Z,20.40
2018-10-06T15:55:58.958Z,20.30
2018-10-06T15:58:27.136Z,20.30
2018-10-06T16:00:55.290Z,20.10
2018-10-06T16:03:23.690Z,20.00
2018-10-06T16:05:51.903Z,19.90
2018-10-06T16:08:20.111Z,19.80
2018-10-06T16:10:48.265Z,19.60
2018-10-06T16:13:16.471Z,19.50
2018-10-06T16:15:45.161Z,19.40
2018-10-06T16:18:13.842Z,19.30
2018-10-06T16:20:41.995Z,19.20
2018-10-06T16:23:10.747Z,19.10
2018-10-06T16:25:41.422Z,18.90
2018-10-06T16:28:10.038Z,18.90
2018-10-06T16:30:39.626Z,18.80
2018-10-06T16:33:07.870Z,18.60
2018-10-06T16:35:36.199Z,18.50
2018-10-06T16:38:04.416Z,18.40
2018-10-06T16:40:32.606Z,18.30
2018-10-06T16:43:01.150Z,18.20
2018-10-06T16:45:29.335Z,18.20
2018-10-06T16:47:57.647Z,18.10
2018-10-06T16:50:29.332Z,18.10
2018-10-06T16:52:58.045Z,18.00
2018-10-06T16:55:26.226Z,18.00
2018-10-06T16:57:54.446Z,18.00
2018-10-06T17:00:22.687Z,18.00
2018-10-06T17:02:50.867Z,17.90
2018-10-06T17:05:19.775Z,17.90
2018-10-06T17:07:49.560Z,17.80
2018-10-06T17:10:17.674Z,17.80
2018-10-06T17:12:45.927Z,17.80
2018-10-06T17:15:14.088Z,17.80
2018-10-06T17:17:42.515Z,17.70
2018-10-06T17:20:10.703Z,17.60
2018-10-06T17:22:39.798Z,17.50
2018-10-06T17:25:08.086Z,17.40
2018-10-06T17:27:36.214Z,17.30
2018-10-06T17:30:04.616Z,17.20
2018-10-06T17:32:33.707Z,17.10
2018-10-06T17:35:02.234Z,16.90
2018-10-06T17:37:31.952Z,16.80
2018-10-06T17:40:07.122Z,16.80
2018-10-06T17:42:35.262Z,16.70
2018-10-06T17:45:03.458Z,16.80
2018-10-06T17:47:31.658Z,16.70
2018-10-06T17:50:00.027Z,16.70
2018-10-06T17:52:34.849Z,16.70
2018-10-06T17:55:03.971Z,16.70
2018-10-06T17:57:32.198Z,16.70
2018-10-06T18:00:00.398Z,16.70
2018-10-06T18:02:29.196Z,16.80
2018-10-06T18:04:57.450Z,16.80
2018-10-06T18:07:25.530Z,16.80
2018-10-06T18:09:53.926Z,16.80
2018-10-06T18:12:22.146Z,16.80
2018-10-06T18:14:50.371Z,16.70
2018-10-06T18:17:20.151Z,16.70
2018-10-06T18:19:50.062Z,16.60
2018-10-06T18:22:18.239Z,16.60
2018-10-06T18:24:46.456Z,16.60
2018-10-06T18:27:20.694Z,16.50
2018-10-06T18:29:49.186Z,16.30
2018-10-06T18:32:17.342Z,16.20
2018-10-06T18:34:45.661Z,16.20
2018-10-06T18:37:14.635Z,16.10
2018-10-06T18:39:42.743Z,16.00
2018-10-06T18:42:10.922Z,15.90
2018-10-06T18:44:39.142Z,15.80
2018-10-06T18:47:16.848Z,15.60
2018-10-06T18:49:45.040Z,15.50
2018-10-06T18:52:13.229Z,15.30
2018-10-06T18:54:41.382Z,15.00
2018-10-06T18:57:09.570Z,14.80
2018-10-06T18:59:37.797Z,14.70
2018-10-06T19:02:05.991Z,14.60
2018-10-06T19:04:34.205Z,14.50
2018-10-06T19:07:02.482Z,14.40
2018-10-06T19:09:30.976Z,14.30
2018-10-06T19:11:59.262Z,14.20
2018-10-06T19:14:27.645Z,14.20
2018-10-06T19:16:55.835Z,14.10
2018-10-06T19:19:24.385Z,14.10
2018-10-06T19:21:52.569Z,14.00
2018-10-06T19:24:22.142Z,13.90
2018-10-06T19:26:50.574Z,13.80
2018-10-06T19:29:18.823Z,13.80
2018-10-06T19:31:47.169Z,13.80
2018-10-06T19:34:15.442Z,13.70
2018-10-06T19:36:44.086Z,13.70
2018-10-06T19:39:12.290Z,13.70
2018-10-06T19:41:41.110Z,13.70
2018-10-06T19:44:09.352Z,13.60
2018-10-06T19:46:37.538Z,13.60
2018-10-06T19:49:05.873Z,13.60
2018-10-06T19:51:34.145Z,13.60
2018-10-06T19:54:02.321Z,13.60
2018-10-06T19:56:30.820Z,13.60
2018-10-06T19:58:59.068Z,13.60
2018-10-06T20:01:27.242Z,13.60
2018-10-06T20:03:55.487Z,13.50
2018-10-06T20:06:24.210Z,13.60
2018-10-06T20:08:52.398Z,13.50
2018-10-06T20:11:20.598Z,13.40
2018-10-06T20:13:48.762Z,13.40
2018-10-06T20:16:16.958Z,13.40
2018-10-06T20:18:45.162Z,13.40
2018-10-06T20:21:13.353Z,13.40
2018-10-06T20:23:41.522Z,13.40
2018-10-06T20:26:09.682Z,13.30
2018-10-06T20:28:37.878Z,13.30
2018-10-06T20:31:06.211Z,13.30
2018-10-06T20:33:34.406Z,13.30
2018-10-06T20:36:02.730Z,13.30
2018-10-06T20:38:30.989Z,13.20
2018-10-06T20:40:59.254Z,13.00
2018-10-06T20:43:30.844Z,13.00
2018-10-06T20:45:59.665Z,12.90
2018-10-06T20:48:27.868Z,12.90
2018-10-06T20:50:56.043Z,12.90
2018-10-06T20:53:24.290Z,12.90
2018-10-06T20:55:52.466Z,13.10
2018-10-06T20:58:20.651Z,13.20
2018-10-06T21:00:48.830Z,13.20
2018-10-06T21:03:17.038Z,13.20
2018-10-06T21:05:45.987Z,13.20
2018-10-06T21:08:14.190Z,13.20
2018-10-06T21:10:42.402Z,13.20
2018-10-06T21:13:10.542Z,13.10
2018-10-06T21:15:38.735Z,13.00
2018-10-06T21:18:06.918Z,13.00
2018-10-06T21:20:35.422Z,13.00
2018-10-06T21:23:03.678Z,12.90
2018-10-06T21:25:32.217Z,12.80
2018-10-06T21:28:01.829Z,12.80
2018-10-06T21:30:30.012Z,12.70
2018-10-06T21:32:58.196Z,12.70
2018-10-06T21:35:26.790Z,12.70
2018-10-06T21:37:55.043Z,12.70
2018-10-06T21:40:23.207Z,12.60
2018-10-06T21:42:51.386Z,12.60
2018-10-06T21:45:19.591Z,12.50
2018-10-06T21:47:47.762Z,12.40
2018-10-06T21:50:16.107Z,12.20
2018-10-06T21:52:44.531Z,12.10
2018-10-06T21:55:13.434Z,12.10
2018-10-06T21:57:41.714Z,12.00
2018-10-06T22:00:09.884Z,11.90
2018-10-06T22:02:38.090Z,11.90
2018-10-06T22:05:06.370Z,11.80
2018-10-06T22:07:34.517Z,11.70
2018-10-06T22:10:02.733Z,11.70
2018-10-06T22:12:30.930Z,11.50
2018-10-06T22:14:59.686Z,11.40
2018-10-06T22:17:28.379Z,11.30
2018-10-06T22:19:56.558Z,11.20
2018-10-06T22:22:24.746Z,11.20
2018-10-06T22:24:52.958Z,11.10
2018-10-06T22:27:21.150Z,11.00
2018-10-06T22:29:50.603Z,10.90
2018-10-06T22:32:18.819Z,10.90
2018-10-06T22:34:47.077Z,10.80
2018-10-06T22:37:16.280Z,10.80
2018-10-06T22:39:44.600Z,10.70
2018-10-06T22:42:12.791Z,10.60
2018-10-06T22:44:41.162Z,10.40
2018-10-06T22:47:09.393Z,10.30
2018-10-06T22:49:37.554Z,10.30
2018-10-06T22:52:05.804Z,10.30
2018-10-06T22:54:34.006Z,10.20
2018-10-06T22:57:02.586Z,10.20
2018-10-06T22:59:30.934Z,10.20
2018-10-06T23:01:59.160Z,10.20
2018-10-06T23:04:27.794Z,10.10
2018-10-06T23:06:55.966Z,10.00
2018-10-06T23:09:24.174Z,9.90
2018-10-06T23:11:58.451Z,9.90
2018-10-06T23:14:27.030Z,10.00
2018-10-06T23:16:55.187Z,9.90
2018-10-06T23:19:23.360Z,9.80
2018-10-06T23:21:51.685Z,9.80
2018-10-06T23:24:19.858Z,9.70
2018-10-06T23:26:48.059Z,9.70
2018-10-06T23:29:16.506Z,9.70
2018-10-06T23:31:45.079Z,9.70
2018-10-06T23:34:13.286Z,9.70
2018-10-06T23:36:41.485Z,9.70
2018-10-06T23:39:09.642Z,9.70
2018-10-06T23:41:38.046Z,9.60
2018-10-06T23:44:06.254Z,9.70
2018-10-06T23:46:34.462Z,9.70
2018-10-06T23:49:02.674Z,9.70
2018-10-06T23:51:30.841Z,9.70
2018-10-06T23:53:59.061Z,9.70
2018-10-06T23:56:27.271Z,9.70
2018-10-06T23:58:55.680Z,9.70
